Back to Top

Language: 

My Weather Underground Personal Weather Station Historical Data with Graphs...

Delerius Weather Station Historical Data
Daily Summary for July 3, 2017 Units:  Metric    English   Both
« Previous Day
Next Day »
Daily Weekly Monthly Yearly Custom
  High: Low: Average:
Temperature: 20.9 °C 12.5 °C 16.3 °C
Dew Point: 13.7 °C 7.1 °C 10.9 °C
Humidity: 87 % 55 % 71 %
Wind Speed: 22.5 km/h 0 km/h 11.6 km/h
Wind Gust: 45.1 km/h - -
Wind:- - WNW
Pressure: 1020.5 hPa 1016.5 hPa -
Precipitation: 0 mm    
Historical Graphs
 
 
Tabular Data for July 3, 2017
Time Temperature Dew Point Pressure Wind Wind Speed Wind Gust Humidity Rainfall Rate (Hourly) solar Conditions
00:02 14.8 °C 11.8 °C 1018.8 hPa West 1.6 km/h 8 km/h 82 % 0 mm 0 W/m2
00:07 14.7 °C 11.4 °C 1018.8 hPa West 1.6 km/h 8 km/h 81 % 0 mm 0 W/m2
00:08 14.7 °C 11.4 °C 1018.8 hPa West 1.6 km/h 8 km/h 81 % 0 mm 0 W/m2
00:13 14.7 °C 11.7 °C 1018.8 hPa West 1.6 km/h 4.8 km/h 82 % 0 mm 0 W/m2
00:18 14.6 °C 11.6 °C 1018.5 hPa Calm   4.8 km/h 82 % 0 mm 0 W/m2
00:23 14.6 °C 11.6 °C 1018.5 hPa Calm     82 % 0 mm 0 W/m2
00:28 14.5 °C 11.4 °C 1018.5 hPa Calm   6.4 km/h 82 % 0 mm 0 W/m2
00:33 14.5 °C 11.4 °C 1018.5 hPa West 1.6 km/h 6.4 km/h 82 % 0 mm 0 W/m2
00:38 14.4 °C 11.4 °C 1018.5 hPa West 1.6 km/h 6.4 km/h 82 % 0 mm 0 W/m2
00:43 14.2 °C 11.2 °C 1018.5 hPa Calm   6.4 km/h 82 % 0 mm 0 W/m2
00:48 14.2 °C 11.2 °C 1018.5 hPa Calm   6.4 km/h 82 % 0 mm 0 W/m2
00:53 14 °C 11 °C 1018.5 hPa Calm   1.6 km/h 82 % 0 mm 0 W/m2
00:58 13.8 °C 10.6 °C 1018.5 hPa NW 1.6 km/h 9.7 km/h 81 % 0 mm 0 W/m2
01:03 13.7 °C 10.3 °C 1018.5 hPa NW 4.8 km/h 16.1 km/h 80 % 0 mm 0 W/m2
01:08 13.7 °C 10.1 °C 1018.5 hPa NW 6.4 km/h 16.1 km/h 79 % 0 mm 0 W/m2
01:13 13.7 °C 9.9 °C 1018.5 hPa NW 3.2 km/h 12.9 km/h 78 % 0 mm 0 W/m2
01:18 13.7 °C 9.9 °C 1018.5 hPa NW 1.6 km/h 8 km/h 78 % 0 mm 0 W/m2
01:23 13.6 °C 9.8 °C 1018.2 hPa Calm   3.2 km/h 78 % 0 mm 0 W/m2
01:28 13.4 °C 9.7 °C 1018.2 hPa Calm   3.2 km/h 78 % 0 mm 0 W/m2
01:33 13.3 °C 9.6 °C 1018.2 hPa NW 1.6 km/h 6.4 km/h 78 % 0 mm 0 W/m2
01:38 13.3 °C 9.7 °C 1018.2 hPa WNW 3.2 km/h 12.9 km/h 79 % 0 mm 0 W/m2
01:43 13.3 °C 9.7 °C 1018.2 hPa WNW 1.6 km/h 12.9 km/h 79 % 0 mm 0 W/m2
01:48 13.3 °C 9.7 °C 1018.2 hPa WNW 1.6 km/h 8 km/h 79 % 0 mm 0 W/m2
01:53 13.3 °C 9.7 °C 1018.2 hPa WNW 1.6 km/h 8 km/h 79 % 0 mm 0 W/m2
01:58 13.2 °C 9.8 °C 1018.2 hPa Calm   8 km/h 80 % 0 mm 0 W/m2
02:03 13.1 °C 9.7 °C 1018.2 hPa Calm   8 km/h 80 % 0 mm 0 W/m2
02:08 13.1 °C 9.7 °C 1017.8 hPa Calm   9.7 km/h 80 % 0 mm 0 W/m2
02:13 13 °C 9.6 °C 1018.2 hPa NW 1.6 km/h 9.7 km/h 80 % 0 mm 0 W/m2
02:18 13 °C 9.8 °C 1017.8 hPa NW 1.6 km/h 9.7 km/h 81 % 0 mm 0 W/m2
02:23 12.9 °C 9.7 °C 1017.8 hPa NW 1.6 km/h 8 km/h 81 % 0 mm 0 W/m2
02:29 12.9 °C 9.7 °C 1017.8 hPa NW 3.2 km/h 9.7 km/h 81 % 0 mm 0 W/m2
02:34 12.9 °C 9.7 °C 1017.8 hPa WNW 6.4 km/h 12.9 km/h 81 % 0 mm 0 W/m2
02:39 12.9 °C 9.7 °C 1017.8 hPa West 8 km/h 12.9 km/h 81 % 0 mm 0 W/m2
02:44 12.9 °C 9.7 °C 1017.8 hPa West 6.4 km/h 12.9 km/h 81 % 0 mm 0 W/m2
02:49 13.1 °C 10.1 °C 1017.5 hPa WSW 8 km/h 16.1 km/h 82 % 0 mm 0 W/m2
02:54 13.1 °C 9.9 °C 1017.5 hPa SW 4.8 km/h 16.1 km/h 81 % 0 mm 0 W/m2
02:59 13 °C 9.8 °C 1017.8 hPa WSW 1.6 km/h 11.3 km/h 81 % 0 mm 0 W/m2
03:04 12.9 °C 9.7 °C 1017.5 hPa WNW 4.8 km/h 12.9 km/h 81 % 0 mm 0 W/m2
03:09 13 °C 9.8 °C 1017.5 hPa West 6.4 km/h 12.9 km/h 81 % 0 mm 0 W/m2
03:14 13 °C 9.8 °C 1017.5 hPa West 6.4 km/h 12.9 km/h 81 % 0 mm 0 W/m2
03:19 12.9 °C 9.7 °C 1017.5 hPa WNW 3.2 km/h 12.9 km/h 81 % 0 mm 0 W/m2
03:24 12.8 °C 9.8 °C 1017.5 hPa WNW 3.2 km/h 8 km/h 82 % 0 mm 0 W/m2
03:34 12.6 °C 9.8 °C 1017.5 hPa WNW 6.4 km/h 12.9 km/h 83 % 0 mm 0 W/m2
03:39 12.5 °C 9.7 °C 1017.2 hPa West 9.7 km/h 19.3 km/h 83 % 0 mm 0 W/m2
03:44 12.6 °C 9.8 °C 1017.2 hPa West 11.3 km/h 19.3 km/h 83 % 0 mm 0 W/m2
03:49 12.7 °C 10.1 °C 1017.2 hPa West 11.3 km/h 19.3 km/h 84 % 0 mm 0 W/m2
03:54 12.8 °C 10 °C 1017.2 hPa West 12.9 km/h 19.3 km/h 83 % 0 mm 0 W/m2
03:59 12.9 °C 10.1 °C 1017.2 hPa West 11.3 km/h 17.7 km/h 83 % 0 mm 0 W/m2
04:04 12.9 °C 10.1 °C 1017.2 hPa West 9.7 km/h 17.7 km/h 83 % 0 mm 0 W/m2
04:09 12.9 °C 10.1 °C 1017.2 hPa West 9.7 km/h 14.5 km/h 83 % 0 mm 0 W/m2
04:14 12.9 °C 10.1 °C 1017.2 hPa West 8 km/h 16.1 km/h 83 % 0 mm 0 W/m2
04:19 12.9 °C 9.9 °C 1017.2 hPa West 6.4 km/h 16.1 km/h 82 % 0 mm 0 W/m2
04:24 12.9 °C 9.9 °C 1017.2 hPa WSW 4.8 km/h 14.5 km/h 82 % 0 mm 0 W/m2
04:29 12.9 °C 9.9 °C 1017.2 hPa West 6.4 km/h 14.5 km/h 82 % 0 mm 0 W/m2
04:34 12.8 °C 9.8 °C 1017.2 hPa WNW 6.4 km/h 12.9 km/h 82 % 0 mm 0 W/m2
04:39 12.8 °C 10 °C 1016.8 hPa WNW 3.2 km/h 11.3 km/h 83 % 0 mm 0 W/m2
04:44 12.7 °C 9.9 °C 1016.8 hPa NW 1.6 km/h 9.7 km/h 83 % 0 mm 0 W/m2
04:49 12.6 °C 9.8 °C 1016.8 hPa Calm   9.7 km/h 83 % 0 mm 5 W/m2
04:54 12.7 °C 10.2 °C 1017.2 hPa West 4.8 km/h 20.9 km/h 85 % 0 mm 5 W/m2
04:59 12.8 °C 10.3 °C 1016.8 hPa West 11.3 km/h 22.5 km/h 85 % 0 mm 5 W/m2
05:04 12.9 °C 10.6 °C 1016.8 hPa West 12.9 km/h 22.5 km/h 86 % 0 mm 7 W/m2
05:09 13 °C 10.7 °C 1016.8 hPa WNW 11.3 km/h 22.5 km/h 86 % 0 mm 9 W/m2
05:14 13 °C 10.7 °C 1016.8 hPa WNW 9.7 km/h 19.3 km/h 86 % 0 mm 12 W/m2
05:19 13.1 °C 10.8 °C 1016.8 hPa WNW 8 km/h 14.5 km/h 86 % 0 mm 18 W/m2
05:25 13.1 °C 10.8 °C 1016.8 hPa WNW 6.4 km/h 14.5 km/h 86 % 0 mm 25 W/m2
05:30 13.1 °C 10.8 °C 1016.8 hPa West 4.8 km/h 16.1 km/h 86 % 0 mm 37 W/m2
05:35 13.1 °C 11 °C 1016.8 hPa WNW 4.8 km/h 16.1 km/h 87 % 0 mm 42 W/m2
05:40 13.3 °C 11.2 °C 1016.8 hPa West 9.7 km/h 25.7 km/h 87 % 0 mm 44 W/m2
05:45 13.4 °C 11.3 °C 1016.8 hPa West 11.3 km/h 25.7 km/h 87 % 0 mm 54 W/m2
05:50 13.7 °C 11.4 °C 1016.8 hPa West 12.9 km/h 25.7 km/h 86 % 0 mm 51 W/m2
05:55 13.8 °C 11.5 °C 1016.8 hPa West 14.5 km/h 29 km/h 86 % 0 mm 46 W/m2
06:00 13.9 °C 11.4 °C 1016.8 hPa West 14.5 km/h 29 km/h 85 % 0 mm 58 W/m2
06:02 13.9 °C 11.4 °C 1016.8 hPa West 12.9 km/h 29 km/h 85 % 0 mm 72 W/m2
06:07 14 °C 11.5 °C 1016.5 hPa West 12.9 km/h 24.1 km/h 85 % 0 mm 93 W/m2
06:12 14.1 °C 11.6 °C 1016.5 hPa West 14.5 km/h 25.7 km/h 85 % 0 mm 98 W/m2
06:17 14.2 °C 11.7 °C 1016.8 hPa West 14.5 km/h 25.7 km/h 85 % 0 mm 83 W/m2
06:22 14.3 °C 11.6 °C 1016.8 hPa West 14.5 km/h 24.1 km/h 84 % 0 mm 81 W/m2
06:27 14.4 °C 11.7 °C 1016.5 hPa West 12.9 km/h 24.1 km/h 84 % 0 mm 84 W/m2
06:32 14.5 °C 11.8 °C 1016.8 hPa West 12.9 km/h 24.1 km/h 84 % 0 mm 76 W/m2
06:37 14.6 °C 11.9 °C 1016.8 hPa West 12.9 km/h 24.1 km/h 84 % 0 mm 69 W/m2
06:42 14.6 °C 11.9 °C 1016.8 hPa West 11.3 km/h 24.1 km/h 84 % 0 mm 70 W/m2
06:47 14.7 °C 12 °C 1016.8 hPa West 14.5 km/h 25.7 km/h 84 % 0 mm 72 W/m2
06:52 14.7 °C 12 °C 1016.8 hPa West 14.5 km/h 25.7 km/h 84 % 0 mm 79 W/m2
06:57 14.8 °C 12.1 °C 1016.8 hPa West 11.3 km/h 22.5 km/h 84 % 0 mm 90 W/m2
07:02 14.8 °C 12.1 °C 1016.8 hPa West 11.3 km/h 19.3 km/h 84 % 0 mm 83 W/m2
07:07 14.8 °C 12.1 °C 1016.8 hPa West 12.9 km/h 19.3 km/h 84 % 0 mm 74 W/m2
07:12 14.9 °C 12.2 °C 1016.8 hPa West 12.9 km/h 29 km/h 84 % 0 mm 76 W/m2
07:17 14.9 °C 12.2 °C 1016.8 hPa West 14.5 km/h 29 km/h 84 % 0 mm 72 W/m2
07:22 14.9 °C 12.2 °C 1016.8 hPa West 12.9 km/h 20.9 km/h 84 % 0 mm 79 W/m2
07:27 14.9 °C 12.2 °C 1016.8 hPa West 14.5 km/h 24.1 km/h 84 % 0 mm 83 W/m2
07:32 14.9 °C 12.4 °C 1016.8 hPa West 14.5 km/h 24.1 km/h 85 % 0 mm 79 W/m2
07:37 14.9 °C 12.4 °C 1016.8 hPa West 14.5 km/h 29 km/h 85 % 0 mm 86 W/m2
07:42 14.9 °C 12.4 °C 1016.8 hPa West 14.5 km/h 29 km/h 85 % 0 mm 88 W/m2
07:47 15 °C 12.5 °C 1016.8 hPa West 14.5 km/h 25.7 km/h 85 % 0 mm 95 W/m2
07:53 15 °C 12.5 °C 1016.8 hPa West 16.1 km/h 37 km/h 85 % 0 mm 104 W/m2
07:58 15.1 °C 12.6 °C 1016.8 hPa West 16.1 km/h 37 km/h 85 % 0 mm 102 W/m2
08:03 15.1 °C 12.6 °C 1017.2 hPa West 14.5 km/h 25.7 km/h 85 % 0 mm 104 W/m2
08:04 15.2 °C 12.7 °C 1017.2 hPa West 12.9 km/h 22.5 km/h 85 % 0 mm 105 W/m2
08:09 15.2 °C 12.7 °C 1017.2 hPa West 14.5 km/h 22.5 km/h 85 % 0 mm 111 W/m2
08:14 15.3 °C 12.8 °C 1017.2 hPa West 14.5 km/h 24.1 km/h 85 % 0 mm 125 W/m2
08:19 15.3 °C 12.6 °C 1017.2 hPa West 12.9 km/h 24.1 km/h 84 % 0 mm 134 W/m2
08:24 15.4 °C 12.7 °C 1017.2 hPa West 14.5 km/h 24.1 km/h 84 % 0 mm 134 W/m2
08:29 15.5 °C 12.8 °C 1017.2 hPa West 14.5 km/h 29 km/h 84 % 0 mm 127 W/m2
08:34 15.6 °C 12.9 °C 1017.2 hPa West 14.5 km/h 29 km/h 84 % 0 mm 142 W/m2
08:39 15.7 °C 13 °C 1017.2 hPa West 12.9 km/h 25.7 km/h 84 % 0 mm 156 W/m2
08:44 15.7 °C 13 °C 1017.2 hPa West 11.3 km/h 19.3 km/h 84 % 0 mm 155 W/m2
08:49 15.8 °C 12.9 °C 1017.2 hPa West 12.9 km/h 20.9 km/h 83 % 0 mm 139 W/m2
08:54 15.8 °C 12.9 °C 1017.5 hPa West 14.5 km/h 20.9 km/h 83 % 0 mm 118 W/m2
08:59 15.9 °C 13 °C 1017.5 hPa West 12.9 km/h 20.9 km/h 83 % 0 mm 102 W/m2
09:04 15.9 °C 13 °C 1017.5 hPa West 11.3 km/h 20.9 km/h 83 % 0 mm 114 W/m2
09:09 16 °C 13.1 °C 1017.5 hPa West 12.9 km/h 22.5 km/h 83 % 0 mm 141 W/m2
09:14 16.1 °C 13.4 °C 1017.5 hPa WNW 12.9 km/h 24.1 km/h 84 % 0 mm 134 W/m2
09:19 16.1 °C 13.2 °C 1017.2 hPa West 11.3 km/h 24.1 km/h 83 % 0 mm 165 W/m2
09:24 16.1 °C 13.4 °C 1017.2 hPa West 9.7 km/h 19.3 km/h 84 % 0 mm 262 W/m2
09:29 16.2 °C 13.5 °C 1017.2 hPa WNW 8 km/h 14.5 km/h 84 % 0 mm 320 W/m2
09:35 16.4 °C 13.7 °C 1017.2 hPa West 8 km/h 12.9 km/h 84 % 0 mm 425 W/m2
09:40 16.8 °C 13.7 °C 1017.2 hPa West 9.7 km/h 20.9 km/h 82 % 0 mm 387 W/m2
09:45 17.3 °C 13.6 °C 1017.2 hPa West 12.9 km/h 22.5 km/h 79 % 0 mm 204 W/m2
09:50 17.4 °C 13.5 °C 1017.2 hPa West 12.9 km/h 25.7 km/h 78 % 0 mm 229 W/m2
09:55 17.4 °C 13.5 °C 1017.2 hPa West 12.9 km/h 25.7 km/h 78 % 0 mm 230 W/m2
10:00 17.5 °C 13.4 °C 1017.2 hPa West 14.5 km/h 25.7 km/h 77 % 0 mm 236 W/m2
10:05 17.5 °C 13.6 °C 1017.2 hPa West 14.5 km/h 25.7 km/h 78 % 0 mm 214 W/m2
10:10 17.5 °C 13.4 °C 1017.2 hPa West 12.9 km/h 24.1 km/h 77 % 0 mm 193 W/m2
10:15 17.4 °C 13.3 °C 1017.5 hPa West 14.5 km/h 25.7 km/h 77 % 0 mm 171 W/m2
10:20 17.3 °C 13.2 °C 1017.5 hPa West 14.5 km/h 25.7 km/h 77 % 0 mm 118 W/m2
10:25 17.2 °C 13.3 °C 1017.5 hPa West 14.5 km/h 22.5 km/h 78 % 0 mm 220 W/m2
10:30 17.2 °C 13.7 °C 1017.2 hPa West 12.9 km/h 22.5 km/h 80 % 0 mm 343 W/m2
10:35 17.3 °C 13.6 °C 1017.5 hPa West 11.3 km/h 22.5 km/h 79 % 0 mm 258 W/m2
10:40 17.5 °C 13.6 °C 1017.2 hPa West 14.5 km/h 30.6 km/h 78 % 0 mm 197 W/m2
10:45 17.6 °C 13.3 °C 1017.2 hPa West 16.1 km/h 30.6 km/h 76 % 0 mm 241 W/m2
10:50 17.7 °C 13.6 °C 1017.2 hPa West 14.5 km/h 24.1 km/h 77 % 0 mm 260 W/m2
10:55 17.8 °C 13.7 °C 1017.2 hPa West 12.9 km/h 24.1 km/h 77 % 0 mm 213 W/m2
11:00 17.8 °C 13.5 °C 1017.2 hPa West 14.5 km/h 25.7 km/h 76 % 0 mm 232 W/m2
11:05 18 °C 13.3 °C 1017.2 hPa West 16.1 km/h 29 km/h 74 % 0 mm 244 W/m2
11:10 18.1 °C 13.4 °C 1017.2 hPa WNW 14.5 km/h 29 km/h 74 % 0 mm 345 W/m2
11:15 18.3 °C 13.4 °C 1017.5 hPa WNW 14.5 km/h 29 km/h 73 % 0 mm 239 W/m2
11:20 18.3 °C 13.2 °C 1017.2 hPa West 16.1 km/h 29 km/h 72 % 0 mm 246 W/m2
11:25 18.3 °C 13.2 °C 1017.5 hPa West 19.3 km/h 33.8 km/h 72 % 0 mm 478 W/m2
11:31 18.4 °C 13.1 °C 1017.5 hPa West 20.9 km/h 33.8 km/h 71 % 0 mm 332 W/m2
11:36 18.5 °C 13.2 °C 1017.5 hPa WNW 17.7 km/h 30.6 km/h 71 % 0 mm 251 W/m2
11:41 18.7 °C 13.3 °C 1017.2 hPa WNW 17.7 km/h 30.6 km/h 71 % 0 mm 469 W/m2
11:46 19.1 °C 13.5 °C 1017.5 hPa WNW 19.3 km/h 35.4 km/h 70 % 0 mm 302 W/m2
11:51 19.1 °C 13.3 °C 1017.5 hPa WNW 19.3 km/h 38.6 km/h 69 % 0 mm 274 W/m2
11:56 18.9 °C 12.9 °C 1017.5 hPa West 19.3 km/h 38.6 km/h 68 % 0 mm 265 W/m2
12:06 18.7 °C 13.1 °C 1017.5 hPa West 14.5 km/h 29 km/h 70 % 0 mm 336 W/m2
12:11 18.8 °C 13 °C 1017.5 hPa WNW 14.5 km/h 24.1 km/h 69 % 0 mm 316 W/m2
12:16 18.9 °C 13.1 °C 1017.5 hPa West 14.5 km/h 25.7 km/h 69 % 0 mm 338 W/m2
12:21 19.1 °C 13.1 °C 1017.5 hPa WNW 14.5 km/h 30.6 km/h 68 % 0 mm 276 W/m2
12:26 19.2 °C 12.9 °C 1017.5 hPa West 16.1 km/h 30.6 km/h 67 % 0 mm 404 W/m2
12:31 19.5 °C 12.7 °C 1017.5 hPa West 17.7 km/h 37 km/h 65 % 0 mm 499 W/m2
12:36 20.1 °C 12.8 °C 1017.5 hPa West 17.7 km/h 37 km/h 63 % 0 mm 508 W/m2
12:41 20.2 °C 12.9 °C 1017.5 hPa West 17.7 km/h 32.2 km/h 63 % 0 mm 473 W/m2
12:46 20.2 °C 12.9 °C 1017.5 hPa WNW 17.7 km/h 30.6 km/h 63 % 0 mm 411 W/m2
12:51 20.2 °C 12.9 °C 1017.5 hPa WNW 14.5 km/h 30.6 km/h 63 % 0 mm 332 W/m2
12:56 20.2 °C 12.7 °C 1017.8 hPa West 16.1 km/h 41.8 km/h 62 % 0 mm 432 W/m2
13:01 19.9 °C 12.7 °C 1017.8 hPa WNW 20.9 km/h 41.8 km/h 63 % 0 mm 360 W/m2
13:06 19.8 °C 12.8 °C 1017.8 hPa WNW 17.7 km/h 32.2 km/h 64 % 0 mm 404 W/m2
13:11 19.7 °C 12.9 °C 1017.5 hPa WNW 16.1 km/h 30.6 km/h 65 % 0 mm 443 W/m2
13:16 19.6 °C 12.6 °C 1017.5 hPa WNW 17.7 km/h 30.6 km/h 64 % 0 mm 357 W/m2
13:21 19.7 °C 12.4 °C 1017.5 hPa WNW 17.7 km/h 37 km/h 63 % 0 mm 383 W/m2
13:26 19.7 °C 12.2 °C 1017.5 hPa West 19.3 km/h 37 km/h 62 % 0 mm 385 W/m2
13:31 19.6 °C 12.4 °C 1017.8 hPa West 20.9 km/h 35.4 km/h 63 % 0 mm 436 W/m2
13:36 19.6 °C 12.6 °C 1017.8 hPa West 20.9 km/h 32.2 km/h 64 % 0 mm 454 W/m2
13:41 19.7 °C 12.7 °C 1017.8 hPa WNW 17.7 km/h 32.2 km/h 64 % 0 mm 480 W/m2
13:46 19.8 °C 12.3 °C 1017.8 hPa WNW 17.7 km/h 33.8 km/h 62 % 0 mm 654 W/m2
13:51 19.8 °C 12.6 °C 1017.8 hPa WNW 19.3 km/h 33.8 km/h 63 % 0 mm 898 W/m2
13:57 19.9 °C 12.4 °C 1017.8 hPa WNW 20.9 km/h 35.4 km/h 62 % 0 mm 443 W/m2
14:02 19.8 °C 12.1 °C 1017.8 hPa WNW 20.9 km/h 35.4 km/h 61 % 0 mm 301 W/m2
14:07 19.8 °C 12.3 °C 1017.8 hPa West 20.9 km/h 35.4 km/h 62 % 0 mm 735 W/m2
14:12 20.2 °C 12.7 °C 1017.8 hPa West 20.9 km/h 40.2 km/h 62 % 0 mm 1020 W/m2
14:17 20.5 °C 12.2 °C 1017.8 hPa WNW 22.5 km/h 40.2 km/h 59 % 0 mm 933 W/m2
14:22 20.7 °C 12.7 °C 1017.8 hPa WNW 20.9 km/h 40.2 km/h 60 % 0 mm 1018 W/m2
14:27 20.8 °C 12.5 °C 1017.8 hPa WNW 19.3 km/h 37 km/h 59 % 0 mm 970 W/m2
14:32 20.9 °C 12.3 °C 1017.8 hPa WNW 20.9 km/h 37 km/h 58 % 0 mm 1042 W/m2
14:37 20.8 °C 12.2 °C 1017.8 hPa WNW 22.5 km/h 37 km/h 58 % 0 mm 299 W/m2
14:42 20.7 °C 11.6 °C 1017.8 hPa WNW 22.5 km/h 38.6 km/h 56 % 0 mm 1014 W/m2
14:47 20.7 °C 11.9 °C 1017.8 hPa WNW 22.5 km/h 38.6 km/h 57 % 0 mm 670 W/m2
14:52 20.6 °C 12.1 °C 1018.2 hPa West 20.9 km/h 38.6 km/h 58 % 0 mm 373 W/m2
14:57 20.2 °C 11.9 °C 1018.2 hPa WNW 19.3 km/h 35.4 km/h 59 % 0 mm 381 W/m2
15:02 20.1 °C 11.8 °C 1018.2 hPa WNW 17.7 km/h 35.4 km/h 59 % 0 mm 457 W/m2
15:07 19.9 °C 11.7 °C 1018.2 hPa WNW 19.3 km/h 38.6 km/h 59 % 0 mm 510 W/m2
15:12 19.8 °C 11.3 °C 1018.2 hPa WNW 20.9 km/h 40.2 km/h 58 % 0 mm 490 W/m2
15:17 19.8 °C 11.3 °C 1018.2 hPa WNW 20.9 km/h 40.2 km/h 58 % 0 mm 471 W/m2
15:22 19.8 °C 11.6 °C 1018.2 hPa West 17.7 km/h 32.2 km/h 59 % 0 mm 403 W/m2
15:27 19.9 °C 11.7 °C 1018.2 hPa WNW 17.7 km/h 32.2 km/h 59 % 0 mm 420 W/m2
15:32 19.8 °C 11.1 °C 1018.2 hPa WNW 19.3 km/h 30.6 km/h 57 % 0 mm 454 W/m2
15:37 19.8 °C 11.3 °C 1018.2 hPa WNW 20.9 km/h 43.5 km/h 58 % 0 mm 396 W/m2
15:42 19.8 °C 11.3 °C 1018.2 hPa WNW 20.9 km/h 43.5 km/h 58 % 0 mm 462 W/m2
15:47 19.7 °C 11.4 °C 1018.2 hPa WNW 19.3 km/h 32.2 km/h 59 % 0 mm 352 W/m2
15:53 19.7 °C 11.4 °C 1018.2 hPa WNW 19.3 km/h 35.4 km/h 59 % 0 mm 387 W/m2
15:58 19.7 °C 11.4 °C 1018.2 hPa WNW 17.7 km/h 37 km/h 59 % 0 mm 380 W/m2
16:03 19.7 °C 11.4 °C 1018.5 hPa WNW 17.7 km/h 37 km/h 59 % 0 mm 782 W/m2
16:08 19.8 °C 11.3 °C 1018.5 hPa West 19.3 km/h 35.4 km/h 58 % 0 mm 856 W/m2
16:13 20.1 °C 11.3 °C 1018.5 hPa WNW 20.9 km/h 45.1 km/h 57 % 0 mm 802 W/m2
16:18 20.2 °C 11.4 °C 1018.2 hPa WNW 20.9 km/h 45.1 km/h 57 % 0 mm 473 W/m2
16:23 20.1 °C 11.1 °C 1018.5 hPa West 20.9 km/h 40.2 km/h 56 % 0 mm 751 W/m2
16:28 20.1 °C 11.1 °C 1018.5 hPa West 22.5 km/h 37 km/h 56 % 0 mm 796 W/m2
16:33 20.3 °C 11.2 °C 1018.2 hPa WNW 20.9 km/h 37 km/h 56 % 0 mm 680 W/m2
16:38 20.4 °C 11.6 °C 1018.5 hPa WNW 17.7 km/h 37 km/h 57 % 0 mm 722 W/m2
16:43 20.6 °C 11.5 °C 1018.5 hPa West 17.7 km/h 33.8 km/h 56 % 0 mm 719 W/m2
16:48 20.4 °C 11.1 °C 1018.5 hPa West 20.9 km/h 43.5 km/h 55 % 0 mm 591 W/m2
16:53 20.2 °C 10.9 °C 1018.2 hPa West 22.5 km/h 43.5 km/h 55 % 0 mm 624 W/m2
16:58 20.2 °C 11.1 °C 1018.5 hPa West 19.3 km/h 40.2 km/h 56 % 0 mm 638 W/m2
17:03 20.3 °C 10.9 °C 1018.5 hPa WNW 19.3 km/h 35.4 km/h 55 % 0 mm 643 W/m2
17:08 20.2 °C 10.9 °C 1018.5 hPa West 17.7 km/h 35.4 km/h 55 % 0 mm 619 W/m2
17:13 20.1 °C 10.8 °C 1018.5 hPa West 17.7 km/h 40.2 km/h 55 % 0 mm 619 W/m2
17:18 20 °C 10.7 °C 1018.5 hPa West 19.3 km/h 40.2 km/h 55 % 0 mm 631 W/m2
17:23 20 °C 10.7 °C 1018.5 hPa WNW 19.3 km/h 35.4 km/h 55 % 0 mm 608 W/m2
17:28 20.1 °C 10.8 °C 1018.5 hPa WNW 17.7 km/h 32.2 km/h 55 % 0 mm 633 W/m2
17:33 19.9 °C 10.6 °C 1018.5 hPa West 19.3 km/h 35.4 km/h 55 % 0 mm 179 W/m2
17:38 19.6 °C 10.8 °C 1018.5 hPa West 19.3 km/h 35.4 km/h 57 % 0 mm 638 W/m2
17:43 19.5 °C 11 °C 1018.5 hPa West 16.1 km/h 30.6 km/h 58 % 0 mm 206 W/m2
17:48 19.3 °C 10.8 °C 1018.5 hPa West 16.1 km/h 30.6 km/h 58 % 0 mm 183 W/m2
17:53 19.2 °C 11 °C 1018.5 hPa West 16.1 km/h 30.6 km/h 59 % 0 mm 192 W/m2
17:58 19.1 °C 10.9 °C 1018.5 hPa WNW 16.1 km/h 32.2 km/h 59 % 0 mm 338 W/m2
18:03 19 °C 10.3 °C 1018.8 hPa WNW 19.3 km/h 35.4 km/h 57 % 0 mm 248 W/m2
18:08 18.9 °C 10.4 °C 1018.5 hPa WNW 19.3 km/h 35.4 km/h 58 % 0 mm 200 W/m2
18:13 18.8 °C 10.6 °C 1018.5 hPa WNW 16.1 km/h 30.6 km/h 59 % 0 mm 181 W/m2
18:18 18.6 °C 10.4 °C 1018.5 hPa WNW 17.7 km/h 33.8 km/h 59 % 0 mm 186 W/m2
18:23 18.6 °C 10.7 °C 1018.5 hPa WNW 17.7 km/h 33.8 km/h 60 % 0 mm 183 W/m2
18:28 18.4 °C 10 °C 1018.8 hPa WNW 16.1 km/h 32.2 km/h 58 % 0 mm 169 W/m2
18:33 18.2 °C 10.1 °C 1018.8 hPa WNW 17.7 km/h 32.2 km/h 59 % 0 mm 156 W/m2
18:38 18.1 °C 9.9 °C 1018.8 hPa WNW 17.7 km/h 37 km/h 59 % 0 mm 139 W/m2
18:43 17.9 °C 9.8 °C 1018.8 hPa WNW 19.3 km/h 37 km/h 59 % 0 mm 132 W/m2
18:48 17.8 °C 9.7 °C 1018.8 hPa WNW 17.7 km/h 33.8 km/h 59 % 0 mm 163 W/m2
18:53 17.7 °C 9.8 °C 1018.8 hPa WNW 17.7 km/h 33.8 km/h 60 % 0 mm 144 W/m2
18:58 17.6 °C 9.5 °C 1019.2 hPa WNW 17.7 km/h 33.8 km/h 59 % 0 mm 132 W/m2
19:03 17.5 °C 9.7 °C 1019.2 hPa NW 17.7 km/h 33.8 km/h 60 % 0 mm 109 W/m2
19:08 17.4 °C 9.6 °C 1019.2 hPa WNW 14.5 km/h 30.6 km/h 60 % 0 mm 123 W/m2
19:13 17.4 °C 9.6 °C 1019.2 hPa WNW 16.1 km/h 30.6 km/h 60 % 0 mm 130 W/m2
19:18 17.3 °C 9.4 °C 1019.2 hPa WNW 16.1 km/h 30.6 km/h 60 % 0 mm 128 W/m2
19:24 17.3 °C 9.4 °C 1019.2 hPa NW 16.1 km/h 29 km/h 60 % 0 mm 135 W/m2
19:28 17.3 °C 9.7 °C 1019.2 hPa NW 16.1 km/h 30.6 km/h 61 % 0 mm 109 W/m2
19:34 17.2 °C 9.4 °C 1019.2 hPa NW 16.1 km/h 30.6 km/h 60 % 0 mm 104 W/m2
19:39 17.1 °C 9.3 °C 1019.2 hPa NW 14.5 km/h 25.7 km/h 60 % 0 mm 88 W/m2
19:44 17.1 °C 9.3 °C 1019.2 hPa NW 12.9 km/h 25.7 km/h 60 % 0 mm 104 W/m2
19:49 17 °C 9.4 °C 1019.2 hPa NW 11.3 km/h 22.5 km/h 61 % 0 mm 76 W/m2
19:54 16.9 °C 8.8 °C 1019.2 hPa NW 11.3 km/h 22.5 km/h 59 % 0 mm 65 W/m2
19:59 16.8 °C 9 °C 1019.2 hPa NW 11.3 km/h 20.9 km/h 60 % 0 mm 58 W/m2
20:04 16.7 °C 8.9 °C 1019.2 hPa NW 9.7 km/h 20.9 km/h 60 % 0 mm 46 W/m2
20:09 16.5 °C 8.4 °C 1019.2 hPa NW 9.7 km/h 24.1 km/h 59 % 0 mm 37 W/m2
20:14 16.4 °C 8.6 °C 1019.5 hPa NW 12.9 km/h 24.1 km/h 60 % 0 mm 26 W/m2
20:19 16.3 °C 8.5 °C 1019.2 hPa NW 11.3 km/h 24.1 km/h 60 % 0 mm 23 W/m2
20:24 16.3 °C 8.8 °C 1019.5 hPa NW 9.7 km/h 19.3 km/h 61 % 0 mm 23 W/m2
20:29 16.2 °C 8.7 °C 1019.5 hPa NW 9.7 km/h 19.3 km/h 61 % 0 mm 21 W/m2
20:34 16.2 °C 8.7 °C 1019.5 hPa WNW 11.3 km/h 19.3 km/h 61 % 0 mm 19 W/m2
20:39 16.1 °C 8.6 °C 1019.5 hPa WNW 11.3 km/h 19.3 km/h 61 % 0 mm 18 W/m2
20:44 16 °C 8.5 °C 1019.5 hPa WNW 8 km/h 20.9 km/h 61 % 0 mm 16 W/m2
20:49 15.9 °C 8.4 °C 1019.5 hPa WNW 6.4 km/h 20.9 km/h 61 % 0 mm 14 W/m2
20:54 15.8 °C 7.8 °C 1019.9 hPa WNW 6.4 km/h 16.1 km/h 59 % 0 mm 14 W/m2
20:59 15.7 °C 7.7 °C 1019.5 hPa WNW 8 km/h 17.7 km/h 59 % 0 mm 14 W/m2
21:04 15.6 °C 7.6 °C 1019.9 hPa WNW 6.4 km/h 17.7 km/h 59 % 0 mm 9 W/m2
21:06 15.6 °C 7.3 °C 1019.5 hPa WNW 6.4 km/h 14.5 km/h 58 % 0 mm 9 W/m2
21:11 15.5 °C 7.3 °C 1019.9 hPa WNW 6.4 km/h 14.5 km/h 58 % 0 mm 5 W/m2
21:16 15.4 °C 7.2 °C 1019.9 hPa WNW 6.4 km/h 14.5 km/h 58 % 0 mm 5 W/m2
21:21 15.4 °C 7.2 °C 1019.9 hPa WNW 6.4 km/h 16.1 km/h 58 % 0 mm 0 W/m2
21:26 15.4 °C 7.2 °C 1019.9 hPa WNW 6.4 km/h 16.1 km/h 58 % 0 mm 0 W/m2
21:31 15.3 °C 7.1 °C 1019.9 hPa WNW 4.8 km/h 11.3 km/h 58 % 0 mm 0 W/m2
21:36 15.3 °C 7.1 °C 1019.9 hPa WNW 3.2 km/h 9.7 km/h 58 % 0 mm 0 W/m2
21:41 15.2 °C 7.2 °C 1019.9 hPa WNW 1.6 km/h 6.4 km/h 59 % 0 mm 0 W/m2
21:46 15.2 °C 7.5 °C 1019.9 hPa WNW 1.6 km/h 6.4 km/h 60 % 0 mm 0 W/m2
21:52 15.1 °C 7.6 °C 1020.2 hPa Calm   1.6 km/h 61 % 0 mm 0 W/m2
21:56 15.1 °C 7.6 °C 1020.2 hPa WNW 1.6 km/h 6.4 km/h 61 % 0 mm 0 W/m2
22:02 15 °C 7.8 °C 1020.2 hPa WNW 1.6 km/h 6.4 km/h 62 % 0 mm 0 W/m2
22:07 14.9 °C 7.9 °C 1020.2 hPa Calm   3.2 km/h 63 % 0 mm 0 W/m2
22:12 14.8 °C 7.6 °C 1020.2 hPa WNW 1.6 km/h 8 km/h 62 % 0 mm 0 W/m2
22:17 14.7 °C 7.5 °C 1019.9 hPa WNW 4.8 km/h 9.7 km/h 62 % 0 mm 0 W/m2
22:22 14.7 °C 7.9 °C 1020.2 hPa WNW 6.4 km/h 12.9 km/h 64 % 0 mm 0 W/m2
22:27 14.7 °C 8.2 °C 1019.9 hPa WNW 6.4 km/h 12.9 km/h 65 % 0 mm 0 W/m2
22:32 14.6 °C 8.1 °C 1020.2 hPa WNW 8 km/h 12.9 km/h 65 % 0 mm 0 W/m2
22:37 14.4 °C 8.1 °C 1020.2 hPa WNW 6.4 km/h 12.9 km/h 66 % 0 mm 0 W/m2
22:42 14.3 °C 8.3 °C 1020.2 hPa West 3.2 km/h 8 km/h 67 % 0 mm 0 W/m2
22:47 14.2 °C 8.2 °C 1020.2 hPa West 3.2 km/h 9.7 km/h 67 % 0 mm 0 W/m2
22:52 14.2 °C 8.4 °C 1020.2 hPa West 4.8 km/h 9.7 km/h 68 % 0 mm 0 W/m2
22:57 14.1 °C 8.1 °C 1020.2 hPa West 1.6 km/h 9.7 km/h 67 % 0 mm 0 W/m2
22:58 14.1 °C 8.1 °C 1020.2 hPa West 1.6 km/h 9.7 km/h 67 % 0 mm 0 W/m2
23:03 14.1 °C 8.3 °C 1020.2 hPa Calm   1.6 km/h 68 % 0 mm 0 W/m2
23:08 14.1 °C 8.3 °C 1020.2 hPa West 1.6 km/h 8 km/h 68 % 0 mm 0 W/m2
23:13 14.1 °C 8.3 °C 1020.2 hPa West 4.8 km/h 9.7 km/h 68 % 0 mm 0 W/m2
23:18 14 °C 8.2 °C 1020.2 hPa WNW 6.4 km/h 9.7 km/h 68 % 0 mm 0 W/m2
23:23 14 °C 8.4 °C 1020.2 hPa WNW 6.4 km/h 9.7 km/h 69 % 0 mm 0 W/m2
23:28 14 °C 8.4 °C 1020.2 hPa WNW 6.4 km/h 14.5 km/h 69 % 0 mm 0 W/m2
23:33 13.9 °C 8.1 °C 1020.2 hPa WNW 4.8 km/h 14.5 km/h 68 % 0 mm 0 W/m2
23:38 13.9 °C 8.3 °C 1020.2 hPa WNW 4.8 km/h 11.3 km/h 69 % 0 mm 0 W/m2
23:43 13.9 °C 8.3 °C 1020.2 hPa WNW 1.6 km/h 9.7 km/h 69 % 0 mm 0 W/m2
23:48 13.9 °C 8.5 °C 1020.2 hPa Calm   3.2 km/h 70 % 0 mm 0 W/m2
23:53 13.9 °C 8.5 °C 1020.5 hPa WNW 1.6 km/h 6.4 km/h 70 % 0 mm 0 W/m2
23:58 13.9 °C 8.3 °C 1020.5 hPa WNW 3.2 km/h 11.3 km/h 69 % 0 mm 0 W/m2
Delerius-Weather
Compliments of Weather Underground - 2.25 mb

Data updates at regular intervals.